sensor_id;sensor_type;location;lat;lon;timestamp;P1;durP1;ratioP1;P2;durP2;ratioP2
21741;SDS011;11033;47.490;11.116;2024-03-02T00:01:22;28.27;;;22.42;;
21741;SDS011;11033;47.490;11.116;2024-03-02T00:03:47;30.45;;;22.67;;
21741;SDS011;11033;47.490;11.116;2024-03-02T00:06:12;30.52;;;23.00;;
21741;SDS011;11033;47.490;11.116;2024-03-02T00:08:38;31.45;;;23.13;;
21741;SDS011;11033;47.490;11.116;2024-03-02T00:11:04;25.13;;;20.27;;
21741;SDS011;11033;47.490;11.116;2024-03-02T00:13:29;29.75;;;21.00;;
21741;SDS011;11033;47.490;11.116;2024-03-02T00:15:56;23.63;;;18.92;;
21741;SDS011;11033;47.490;11.116;2024-03-02T00:20:58;20.75;;;17.02;;
21741;SDS011;11033;47.490;11.116;2024-03-02T00:23:24;20.55;;;16.42;;
21741;SDS011;11033;47.490;11.116;2024-03-02T00:25:54;21.42;;;17.20;;
21741;SDS011;11033;47.490;11.116;2024-03-02T00:28:27;25.83;;;18.80;;
21741;SDS011;11033;47.490;11.116;2024-03-02T00:31:04;25.08;;;18.38;;
21741;SDS011;11033;47.490;11.116;2024-03-02T00:33:32;21.38;;;16.33;;
21741;SDS011;11033;47.490;11.116;2024-03-02T00:35:59;18.60;;;14.40;;
21741;SDS011;11033;47.490;11.116;2024-03-02T00:38:25;29.90;;;20.52;;
21741;SDS011;11033;47.490;11.116;2024-03-02T00:40:52;22.48;;;16.73;;
21741;SDS011;11033;47.490;11.116;2024-03-02T00:45:48;23.88;;;18.42;;
21741;SDS011;11033;47.490;11.116;2024-03-02T00:48:15;19.52;;;15.60;;
21741;SDS011;11033;47.490;11.116;2024-03-02T00:50:41;19.17;;;14.52;;
21741;SDS011;11033;47.490;11.116;2024-03-02T00:53:08;14.20;;;11.63;;
21741;SDS011;11033;47.490;11.116;2024-03-02T00:55:36;16.38;;;13.27;;
21741;SDS011;11033;47.490;11.116;2024-03-02T00:58:02;24.55;;;16.33;;
21741;SDS011;11033;47.490;11.116;2024-03-02T01:00:27;16.33;;;12.82;;
21741;SDS011;11033;47.490;11.116;2024-03-02T01:02:53;14.85;;;12.15;;
21741;SDS011;11033;47.490;11.116;2024-03-02T01:05:18;13.35;;;11.70;;
21741;SDS011;11033;47.490;11.116;2024-03-02T01:07:43;19.17;;;12.95;;
21741;SDS011;11033;47.490;11.116;2024-03-02T01:10:09;15.43;;;12.75;;
21741;SDS011;11033;47.490;11.116;2024-03-02T01:12:34;17.05;;;13.88;;
21741;SDS011;11033;47.490;11.116;2024-03-02T01:15:00;18.67;;;15.23;;
21741;SDS011;11033;47.490;11.116;2024-03-02T01:17:25;18.00;;;14.95;;
21741;SDS011;11033;47.490;11.116;2024-03-02T01:19:50;20.90;;;16.58;;
21741;SDS011;11033;47.490;11.116;2024-03-02T01:22:16;18.77;;;15.45;;
21741;SDS011;11033;47.490;11.116;2024-03-02T01:24:41;17.50;;;14.65;;
21741;SDS011;11033;47.490;11.116;2024-03-02T01:27:07;19.35;;;14.88;;
21741;SDS011;11033;47.490;11.116;2024-03-02T01:29:32;17.13;;;13.82;;
21741;SDS011;11033;47.490;11.116;2024-03-02T01:31:58;16.40;;;13.52;;
21741;SDS011;11033;47.490;11.116;2024-03-02T01:34:23;17.85;;;13.45;;
21741;SDS011;11033;47.490;11.116;2024-03-02T01:36:48;15.43;;;12.18;;
21741;SDS011;11033;47.490;11.116;2024-03-02T01:39:13;16.80;;;13.98;;
21741;SDS011;11033;47.490;11.116;2024-03-02T01:41:39;17.85;;;13.70;;
21741;SDS011;11033;47.490;11.116;2024-03-02T01:44:04;19.95;;;14.20;;
21741;SDS011;11033;47.490;11.116;2024-03-02T01:46:29;17.58;;;12.40;;
21741;SDS011;11033;47.490;11.116;2024-03-02T01:48:54;18.05;;;13.88;;
21741;SDS011;11033;47.490;11.116;2024-03-02T01:51:20;15.63;;;12.55;;
21741;SDS011;11033;47.490;11.116;2024-03-02T01:53:46;18.17;;;11.80;;
21741;SDS011;11033;47.490;11.116;2024-03-02T01:56:11;17.90;;;13.70;;
21741;SDS011;11033;47.490;11.116;2024-03-02T01:58:36;19.23;;;14.07;;
21741;SDS011;11033;47.490;11.116;2024-03-02T02:01:02;20.15;;;15.23;;
21741;SDS011;11033;47.490;11.116;2024-03-02T02:03:27;16.17;;;12.40;;
21741;SDS011;11033;47.490;11.116;2024-03-02T02:05:53;16.98;;;12.80;;
21741;SDS011;11033;47.490;11.116;2024-03-02T02:08:18;16.88;;;13.07;;
21741;SDS011;11033;47.490;11.116;2024-03-02T02:10:43;15.27;;;12.05;;
21741;SDS011;11033;47.490;11.116;2024-03-02T02:13:09;15.30;;;11.70;;
21741;SDS011;11033;47.490;11.116;2024-03-02T02:15:34;15.98;;;12.70;;
21741;SDS011;11033;47.490;11.116;2024-03-02T02:18:01;15.32;;;11.48;;
21741;SDS011;11033;47.490;11.116;2024-03-02T02:20:26;16.38;;;12.20;;
21741;SDS011;11033;47.490;11.116;2024-03-02T02:23:01;16.92;;;12.65;;
21741;SDS011;11033;47.490;11.116;2024-03-02T02:25:28;15.18;;;11.57;;
21741;SDS011;11033;47.490;11.116;2024-03-02T02:27:54;12.07;;;8.20;;
21741;SDS011;11033;47.490;11.116;2024-03-02T02:30:27;12.10;;;9.98;;
21741;SDS011;11033;47.490;11.116;2024-03-02T02:32:54;12.13;;;9.02;;
21741;SDS011;11033;47.490;11.116;2024-03-02T02:35:19;11.98;;;9.05;;
21741;SDS011;11033;47.490;11.116;2024-03-02T02:37:45;11.27;;;9.18;;
21741;SDS011;11033;47.490;11.116;2024-03-02T02:40:12;11.55;;;9.45;;
21741;SDS011;11033;47.490;11.116;2024-03-02T02:42:37;12.10;;;9.23;;
21741;SDS011;11033;47.490;11.116;2024-03-02T02:45:03;13.98;;;10.60;;
21741;SDS011;11033;47.490;11.116;2024-03-02T02:47:29;14.00;;;10.50;;
21741;SDS011;11033;47.490;11.116;2024-03-02T02:49:54;13.85;;;10.90;;
21741;SDS011;11033;47.490;11.116;2024-03-02T02:52:20;13.82;;;11.05;;
21741;SDS011;11033;47.490;11.116;2024-03-02T02:54:46;12.57;;;9.68;;
21741;SDS011;11033;47.490;11.116;2024-03-02T02:57:11;10.20;;;8.25;;
21741;SDS011;11033;47.490;11.116;2024-03-02T02:59:36;11.77;;;8.88;;
21741;SDS011;11033;47.490;11.116;2024-03-02T03:02:02;12.27;;;9.45;;
21741;SDS011;11033;47.490;11.116;2024-03-02T03:04:27;7.45;;;6.50;;
21741;SDS011;11033;47.490;11.116;2024-03-02T03:06:52;6.72;;;5.47;;
21741;SDS011;11033;47.490;11.116;2024-03-02T03:09:18;8.25;;;6.07;;
21741;SDS011;11033;47.490;11.116;2024-03-02T03:11:43;7.97;;;6.65;;
21741;SDS011;11033;47.490;11.116;2024-03-02T03:14:09;8.45;;;6.40;;
21741;SDS011;11033;47.490;11.116;2024-03-02T03:16:34;6.95;;;5.65;;
21741;SDS011;11033;47.490;11.116;2024-03-02T03:18:59;9.77;;;7.72;;
21741;SDS011;11033;47.490;11.116;2024-03-02T03:21:24;10.43;;;8.15;;
21741;SDS011;11033;47.490;11.116;2024-03-02T03:23:50;10.15;;;7.95;;
21741;SDS011;11033;47.490;11.116;2024-03-02T03:26:15;10.82;;;7.80;;
21741;SDS011;11033;47.490;11.116;2024-03-02T03:28:40;10.93;;;8.25;;
21741;SDS011;11033;47.490;11.116;2024-03-02T03:31:05;10.05;;;8.18;;
21741;SDS011;11033;47.490;11.116;2024-03-02T03:33:32;10.40;;;8.52;;
21741;SDS011;11033;47.490;11.116;2024-03-02T03:35:57;16.48;;;11.18;;
21741;SDS011;11033;47.490;11.116;2024-03-02T03:38:22;9.55;;;7.75;;
21741;SDS011;11033;47.490;11.116;2024-03-02T03:40:47;11.55;;;8.65;;
21741;SDS011;11033;47.490;11.116;2024-03-02T03:43:13;10.60;;;8.18;;
21741;SDS011;11033;47.490;11.116;2024-03-02T03:45:38;11.60;;;9.15;;
21741;SDS011;11033;47.490;11.116;2024-03-02T03:48:03;10.48;;;8.23;;
21741;SDS011;11033;47.490;11.116;2024-03-02T03:50:29;10.93;;;8.43;;
21741;SDS011;11033;47.490;11.116;2024-03-02T03:52:54;12.40;;;9.05;;
21741;SDS011;11033;47.490;11.116;2024-03-02T03:55:19;11.68;;;8.85;;
21741;SDS011;11033;47.490;11.116;2024-03-02T03:57:44;10.50;;;8.73;;
21741;SDS011;11033;47.490;11.116;2024-03-02T04:00:10;14.38;;;9.18;;
21741;SDS011;11033;47.490;11.116;2024-03-02T04:02:36;14.02;;;9.65;;
21741;SDS011;11033;47.490;11.116;2024-03-02T04:05:01;12.02;;;7.80;;
21741;SDS011;11033;47.490;11.116;2024-03-02T04:07:29;14.85;;;9.95;;
21741;SDS011;11033;47.490;11.116;2024-03-02T04:09:55;11.88;;;8.93;;
21741;SDS011;11033;47.490;11.116;2024-03-02T04:12:21;11.15;;;8.65;;
21741;SDS011;11033;47.490;11.116;2024-03-02T04:14:46;10.80;;;7.97;;
21741;SDS011;11033;47.490;11.116;2024-03-02T04:17:12;13.43;;;9.20;;
21741;SDS011;11033;47.490;11.116;2024-03-02T04:19:38;14.75;;;9.85;;
21741;SDS011;11033;47.490;11.116;2024-03-02T04:22:03;12.23;;;8.20;;
21741;SDS011;11033;47.490;11.116;2024-03-02T04:24:29;9.90;;;7.80;;
21741;SDS011;11033;47.490;11.116;2024-03-02T04:26:55;8.05;;;6.68;;
21741;SDS011;11033;47.490;11.116;2024-03-02T04:29:20;10.35;;;7.63;;
21741;SDS011;11033;47.490;11.116;2024-03-02T04:31:45;10.52;;;7.80;;
21741;SDS011;11033;47.490;11.116;2024-03-02T04:34:11;9.45;;;7.32;;
21741;SDS011;11033;47.490;11.116;2024-03-02T04:36:36;9.80;;;7.85;;
21741;SDS011;11033;47.490;11.116;2024-03-02T04:39:01;10.75;;;7.70;;
21741;SDS011;11033;47.490;11.116;2024-03-02T04:41:27;10.18;;;7.70;;
21741;SDS011;11033;47.490;11.116;2024-03-02T04:43:52;8.27;;;7.00;;
21741;SDS011;11033;47.490;11.116;2024-03-02T04:46:18;11.50;;;8.10;;
21741;SDS011;11033;47.490;11.116;2024-03-02T04:48:43;10.30;;;7.47;;
21741;SDS011;11033;47.490;11.116;2024-03-02T04:51:08;9.48;;;7.18;;
21741;SDS011;11033;47.490;11.116;2024-03-02T04:53:34;8.73;;;7.55;;
21741;SDS011;11033;47.490;11.116;2024-03-02T04:55:59;9.60;;;7.00;;
21741;SDS011;11033;47.490;11.116;2024-03-02T04:58:43;12.27;;;8.13;;
21741;SDS011;11033;47.490;11.116;2024-03-02T05:01:08;10.75;;;7.50;;
21741;SDS011;11033;47.490;11.116;2024-03-02T05:03:33;10.45;;;7.93;;
21741;SDS011;11033;47.490;11.116;2024-03-02T05:05:59;8.02;;;6.38;;
21741;SDS011;11033;47.490;11.116;2024-03-02T05:08:25;10.57;;;7.47;;
21741;SDS011;11033;47.490;11.116;2024-03-02T05:10:50;11.52;;;8.20;;
21741;SDS011;11033;47.490;11.116;2024-03-02T05:13:15;10.55;;;7.35;;
21741;SDS011;11033;47.490;11.116;2024-03-02T05:15:42;9.15;;;6.63;;
21741;SDS011;11033;47.490;11.116;2024-03-02T05:18:08;10.10;;;7.38;;
21741;SDS011;11033;47.490;11.116;2024-03-02T05:20:33;8.75;;;6.80;;
21741;SDS011;11033;47.490;11.116;2024-03-02T05:22:59;10.88;;;7.60;;
21741;SDS011;11033;47.490;11.116;2024-03-02T05:25:24;12.85;;;8.57;;
21741;SDS011;11033;47.490;11.116;2024-03-02T05:27:49;7.63;;;5.90;;
21741;SDS011;11033;47.490;11.116;2024-03-02T05:30:15;7.65;;;6.18;;
21741;SDS011;11033;47.490;11.116;2024-03-02T05:32:40;8.68;;;6.78;;
21741;SDS011;11033;47.490;11.116;2024-03-02T05:35:06;10.75;;;6.35;;
21741;SDS011;11033;47.490;11.116;2024-03-02T05:37:32;11.80;;;7.60;;
21741;SDS011;11033;47.490;11.116;2024-03-02T05:39:57;9.27;;;6.20;;
21741;SDS011;11033;47.490;11.116;2024-03-02T05:42:22;9.07;;;7.15;;
21741;SDS011;11033;47.490;11.116;2024-03-02T05:44:47;6.88;;;5.50;;
21741;SDS011;11033;47.490;11.116;2024-03-02T05:47:13;9.05;;;6.72;;
21741;SDS011;11033;47.490;11.116;2024-03-02T05:49:38;8.95;;;6.55;;
21741;SDS011;11033;47.490;11.116;2024-03-02T05:52:04;6.20;;;5.60;;
21741;SDS011;11033;47.490;11.116;2024-03-02T05:54:29;9.27;;;6.85;;
21741;SDS011;11033;47.490;11.116;2024-03-02T05:56:55;6.55;;;5.18;;
21741;SDS011;11033;47.490;11.116;2024-03-02T05:59:20;6.30;;;5.45;;
21741;SDS011;11033;47.490;11.116;2024-03-02T06:01:46;9.00;;;6.93;;
21741;SDS011;11033;47.490;11.116;2024-03-02T06:04:12;7.30;;;6.30;;
21741;SDS011;11033;47.490;11.116;2024-03-02T06:06:38;8.40;;;5.82;;
21741;SDS011;11033;47.490;11.116;2024-03-02T06:09:04;9.07;;;7.50;;
21741;SDS011;11033;47.490;11.116;2024-03-02T06:11:32;8.02;;;6.70;;
21741;SDS011;11033;47.490;11.116;2024-03-02T06:13:58;18.05;;;7.68;;
21741;SDS011;11033;47.490;11.116;2024-03-02T06:16:23;9.07;;;7.20;;
21741;SDS011;11033;47.490;11.116;2024-03-02T06:18:49;8.15;;;7.25;;
21741;SDS011;11033;47.490;11.116;2024-03-02T06:21:14;8.40;;;7.10;;
21741;SDS011;11033;47.490;11.116;2024-03-02T06:23:39;7.95;;;6.95;;
21741;SDS011;11033;47.490;11.116;2024-03-02T06:26:05;10.73;;;8.48;;
21741;SDS011;11033;47.490;11.116;2024-03-02T06:28:30;7.78;;;6.97;;
21741;SDS011;11033;47.490;11.116;2024-03-02T06:30:55;9.73;;;8.07;;
21741;SDS011;11033;47.490;11.116;2024-03-02T06:33:21;9.70;;;7.97;;
21741;SDS011;11033;47.490;11.116;2024-03-02T06:35:46;11.00;;;8.13;;
21741;SDS011;11033;47.490;11.116;2024-03-02T06:38:11;8.00;;;7.10;;
21741;SDS011;11033;47.490;11.116;2024-03-02T06:40:36;7.57;;;6.82;;
21741;SDS011;11033;47.490;11.116;2024-03-02T06:43:04;9.32;;;8.05;;
21741;SDS011;11033;47.490;11.116;2024-03-02T06:45:29;9.43;;;7.63;;
21741;SDS011;11033;47.490;11.116;2024-03-02T06:47:55;7.90;;;6.95;;
21741;SDS011;11033;47.490;11.116;2024-03-02T06:50:21;9.45;;;6.95;;
21741;SDS011;11033;47.490;11.116;2024-03-02T06:52:46;7.47;;;6.72;;
21741;SDS011;11033;47.490;11.116;2024-03-02T06:55:12;13.30;;;9.93;;
21741;SDS011;11033;47.490;11.116;2024-03-02T06:57:37;11.85;;;8.50;;
21741;SDS011;11033;47.490;11.116;2024-03-02T07:00:02;12.93;;;10.35;;
21741;SDS011;11033;47.490;11.116;2024-03-02T07:02:30;13.40;;;10.80;;
21741;SDS011;11033;47.490;11.116;2024-03-02T07:04:55;12.32;;;9.93;;
21741;SDS011;11033;47.490;11.116;2024-03-02T07:07:21;13.88;;;10.25;;
21741;SDS011;11033;47.490;11.116;2024-03-02T07:09:46;10.48;;;8.70;;
21741;SDS011;11033;47.490;11.116;2024-03-02T07:12:13;11.32;;;7.90;;
21741;SDS011;11033;47.490;11.116;2024-03-02T07:14:38;10.60;;;8.60;;
21741;SDS011;11033;47.490;11.116;2024-03-02T07:17:29;11.65;;;6.85;;
21741;SDS011;11033;47.490;11.116;2024-03-02T07:19:57;7.72;;;6.25;;
21741;SDS011;11033;47.490;11.116;2024-03-02T07:22:23;7.55;;;6.07;;
21741;SDS011;11033;47.490;11.116;2024-03-02T07:24:49;6.75;;;5.13;;
21741;SDS011;11033;47.490;11.116;2024-03-02T07:27:14;11.00;;;5.35;;
21741;SDS011;11033;47.490;11.116;2024-03-02T07:29:40;8.20;;;6.00;;
21741;SDS011;11033;47.490;11.116;2024-03-02T07:32:06;5.78;;;4.70;;
21741;SDS011;11033;47.490;11.116;2024-03-02T07:34:32;6.72;;;4.47;;
21741;SDS011;11033;47.490;11.116;2024-03-02T07:36:58;6.32;;;4.72;;
21741;SDS011;11033;47.490;11.116;2024-03-02T07:39:23;6.13;;;4.50;;
21741;SDS011;11033;47.490;11.116;2024-03-02T07:41:49;5.40;;;4.57;;
21741;SDS011;11033;47.490;11.116;2024-03-02T07:44:14;4.35;;;3.95;;
21741;SDS011;11033;47.490;11.116;2024-03-02T07:46:40;5.03;;;4.10;;
21741;SDS011;11033;47.490;11.116;2024-03-02T07:49:06;5.03;;;4.10;;
21741;SDS011;11033;47.490;11.116;2024-03-02T07:51:32;5.15;;;4.57;;
21741;SDS011;11033;47.490;11.116;2024-03-02T07:53:57;4.80;;;3.80;;
21741;SDS011;11033;47.490;11.116;2024-03-02T07:56:22;5.15;;;4.10;;
21741;SDS011;11033;47.490;11.116;2024-03-02T07:58:50;7.25;;;5.70;;
21741;SDS011;11033;47.490;11.116;2024-03-02T08:01:16;5.95;;;4.88;;
21741;SDS011;11033;47.490;11.116;2024-03-02T08:03:42;5.30;;;4.80;;
21741;SDS011;11033;47.490;11.116;2024-03-02T08:06:08;4.65;;;4.18;;
21741;SDS011;11033;47.490;11.116;2024-03-02T08:08:33;4.15;;;3.75;;
21741;SDS011;11033;47.490;11.116;2024-03-02T08:10:58;4.70;;;4.30;;
21741;SDS011;11033;47.490;11.116;2024-03-02T08:13:23;4.90;;;3.53;;
21741;SDS011;11033;47.490;11.116;2024-03-02T08:15:49;4.35;;;3.70;;
21741;SDS011;11033;47.490;11.116;2024-03-02T08:18:14;5.05;;;4.13;;
21741;SDS011;11033;47.490;11.116;2024-03-02T08:20:40;4.43;;;3.60;;
21741;SDS011;11033;47.490;11.116;2024-03-02T08:23:05;4.72;;;3.65;;
21741;SDS011;11033;47.490;11.116;2024-03-02T08:25:31;3.70;;;3.33;;
21741;SDS011;11033;47.490;11.116;2024-03-02T08:27:56;5.03;;;3.42;;
21741;SDS011;11033;47.490;11.116;2024-03-02T08:30:22;6.05;;;4.80;;
21741;SDS011;11033;47.490;11.116;2024-03-02T08:32:47;4.30;;;3.90;;
21741;SDS011;11033;47.490;11.116;2024-03-02T08:35:12;3.78;;;3.17;;
21741;SDS011;11033;47.490;11.116;2024-03-02T08:37:39;4.18;;;3.55;;
21741;SDS011;11033;47.490;11.116;2024-03-02T08:40:07;3.28;;;2.97;;
21741;SDS011;11033;47.490;11.116;2024-03-02T08:42:32;3.97;;;3.33;;
21741;SDS011;11033;47.490;11.116;2024-03-02T08:44:58;3.40;;;3.10;;
21741;SDS011;11033;47.490;11.116;2024-03-02T08:47:25;3.45;;;2.67;;
21741;SDS011;11033;47.490;11.116;2024-03-02T08:49:51;3.30;;;2.97;;
21741;SDS011;11033;47.490;11.116;2024-03-02T08:52:17;2.60;;;2.40;;
21741;SDS011;11033;47.490;11.116;2024-03-02T08:54:42;3.03;;;2.72;;
21741;SDS011;11033;47.490;11.116;2024-03-02T08:57:07;3.47;;;3.10;;
21741;SDS011;11033;47.490;11.116;2024-03-02T08:59:32;2.97;;;2.78;;
21741;SDS011;11033;47.490;11.116;2024-03-02T09:01:58;3.05;;;2.83;;
21741;SDS011;11033;47.490;11.116;2024-03-02T09:04:24;2.70;;;2.50;;
21741;SDS011;11033;47.490;11.116;2024-03-02T09:06:49;3.08;;;2.60;;
21741;SDS011;11033;47.490;11.116;2024-03-02T09:09:14;3.22;;;2.60;;
21741;SDS011;11033;47.490;11.116;2024-03-02T09:11:40;2.80;;;2.60;;
21741;SDS011;11033;47.490;11.116;2024-03-02T09:14:05;4.18;;;3.78;;
21741;SDS011;11033;47.490;11.116;2024-03-02T09:16:31;4.88;;;3.80;;
21741;SDS011;11033;47.490;11.116;2024-03-02T09:18:56;3.53;;;2.97;;
21741;SDS011;11033;47.490;11.116;2024-03-02T09:21:22;3.70;;;2.92;;
21741;SDS011;11033;47.490;11.116;2024-03-02T09:23:47;2.90;;;2.70;;
21741;SDS011;11033;47.490;11.116;2024-03-02T09:26:13;4.82;;;3.40;;
21741;SDS011;11033;47.490;11.116;2024-03-02T09:28:42;3.20;;;2.90;;
21741;SDS011;11033;47.490;11.116;2024-03-02T09:31:08;2.80;;;2.28;;
21741;SDS011;11033;47.490;11.116;2024-03-02T09:33:33;2.95;;;2.70;;
21741;SDS011;11033;47.490;11.116;2024-03-02T09:35:58;3.58;;;3.05;;
21741;SDS011;11033;47.490;11.116;2024-03-02T09:38:23;4.55;;;3.03;;
21741;SDS011;11033;47.490;11.116;2024-03-02T09:40:49;5.22;;;2.83;;
21741;SDS011;11033;47.490;11.116;2024-03-02T09:43:14;2.85;;;2.58;;
21741;SDS011;11033;47.490;11.116;2024-03-02T09:45:39;3.25;;;2.92;;
21741;SDS011;11033;47.490;11.116;2024-03-02T09:48:05;3.20;;;2.72;;
21741;SDS011;11033;47.490;11.116;2024-03-02T09:50:30;3.10;;;2.80;;
21741;SDS011;11033;47.490;11.116;2024-03-02T09:52:56;3.30;;;3.00;;
21741;SDS011;11033;47.490;11.116;2024-03-02T09:55:21;5.50;;;3.38;;
21741;SDS011;11033;47.490;11.116;2024-03-02T09:57:47;3.63;;;3.08;;
21741;SDS011;11033;47.490;11.116;2024-03-02T10:00:15;4.93;;;3.63;;
21741;SDS011;11033;47.490;11.116;2024-03-02T10:02:41;3.35;;;3.05;;
21741;SDS011;11033;47.490;11.116;2024-03-02T10:05:07;4.88;;;3.50;;
21741;SDS011;11033;47.490;11.116;2024-03-02T10:07:37;3.65;;;2.90;;
21741;SDS011;11033;47.490;11.116;2024-03-02T10:10:15;5.55;;;3.10;;
21741;SDS011;11033;47.490;11.116;2024-03-02T10:12:41;3.58;;;3.28;;
21741;SDS011;11033;47.490;11.116;2024-03-02T10:15:06;3.70;;;3.40;;
21741;SDS011;11033;47.490;11.116;2024-03-02T10:17:32;4.00;;;3.47;;
21741;SDS011;11033;47.490;11.116;2024-03-02T10:19:58;3.35;;;3.05;;
21741;SDS011;11033;47.490;11.116;2024-03-02T10:22:23;3.22;;;2.90;;
21741;SDS011;11033;47.490;11.116;2024-03-02T10:24:49;3.22;;;2.88;;
21741;SDS011;11033;47.490;11.116;2024-03-02T10:27:15;4.53;;;2.80;;
21741;SDS011;11033;47.490;11.116;2024-03-02T10:29:47;2.83;;;2.53;;
21741;SDS011;11033;47.490;11.116;2024-03-02T10:32:13;2.25;;;2.13;;
21741;SDS011;11033;47.490;11.116;2024-03-02T10:34:39;1.80;;;1.70;;
21741;SDS011;11033;47.490;11.116;2024-03-02T10:37:06;1.48;;;1.38;;
21741;SDS011;11033;47.490;11.116;2024-03-02T10:39:32;1.20;;;1.10;;
21741;SDS011;11033;47.490;11.116;2024-03-02T10:42:00;1.25;;;1.13;;
21741;SDS011;11033;47.490;11.116;2024-03-02T10:44:28;2.53;;;1.20;;
21741;SDS011;11033;47.490;11.116;2024-03-02T10:46:54;1.17;;;1.17;;
21741;SDS011;11033;47.490;11.116;2024-03-02T10:49:20;2.53;;;1.65;;
21741;SDS011;11033;47.490;11.116;2024-03-02T10:51:48;2.00;;;1.50;;
21741;SDS011;11033;47.490;11.116;2024-03-02T10:54:13;2.10;;;1.58;;
21741;SDS011;11033;47.490;11.116;2024-03-02T10:56:40;1.88;;;1.30;;
21741;SDS011;11033;47.490;11.116;2024-03-02T10:59:10;2.47;;;1.58;;
21741;SDS011;11033;47.490;11.116;2024-03-02T11:01:43;1.48;;;1.35;;
21741;SDS011;11033;47.490;11.116;2024-03-02T11:04:10;2.70;;;1.70;;
21741;SDS011;11033;47.490;11.116;2024-03-02T11:06:37;5.22;;;2.40;;
21741;SDS011;11033;47.490;11.116;2024-03-02T11:09:07;2.25;;;2.05;;
21741;SDS011;11033;47.490;11.116;2024-03-02T11:11:34;3.45;;;2.42;;
21741;SDS011;11033;47.490;11.116;2024-03-02T11:14:04;2.45;;;2.25;;
21741;SDS011;11033;47.490;11.116;2024-03-02T11:16:36;3.00;;;2.05;;
21741;SDS011;11033;47.490;11.116;2024-03-02T11:19:04;2.95;;;2.17;;
21741;SDS011;11033;47.490;11.116;2024-03-02T11:21:31;3.42;;;2.10;;
21741;SDS011;11033;47.490;11.116;2024-03-02T11:23:58;2.10;;;1.90;;
21741;SDS011;11033;47.490;11.116;2024-03-02T11:26:23;3.17;;;2.10;;
21741;SDS011;11033;47.490;11.116;2024-03-02T11:28:49;2.10;;;2.00;;
21741;SDS011;11033;47.490;11.116;2024-03-02T11:31:15;2.17;;;1.98;;
21741;SDS011;11033;47.490;11.116;2024-03-02T11:33:40;7.82;;;1.95;;
21741;SDS011;11033;47.490;11.116;2024-03-02T11:36:09;3.47;;;2.00;;
21741;SDS011;11033;47.490;11.116;2024-03-02T11:38:34;2.00;;;1.90;;
21741;SDS011;11033;47.490;11.116;2024-03-02T11:41:01;2.00;;;1.90;;
21741;SDS011;11033;47.490;11.116;2024-03-02T11:43:30;2.08;;;1.75;;
21741;SDS011;11033;47.490;11.116;2024-03-02T11:46:03;3.22;;;1.90;;
21741;SDS011;11033;47.490;11.116;2024-03-02T11:48:32;1.90;;;1.80;;
21741;SDS011;11033;47.490;11.116;2024-03-02T11:50:58;1.70;;;1.60;;
21741;SDS011;11033;47.490;11.116;2024-03-02T11:53:24;2.47;;;1.58;;
21741;SDS011;11033;47.490;11.116;2024-03-02T11:55:52;2.72;;;1.70;;
21741;SDS011;11033;47.490;11.116;2024-03-02T11:58:20;2.08;;;1.58;;
21741;SDS011;11033;47.490;11.116;2024-03-02T12:00:50;1.70;;;1.60;;
21741;SDS011;11033;47.490;11.116;2024-03-02T12:03:16;1.73;;;1.63;;
21741;SDS011;11033;47.490;11.116;2024-03-02T12:05:42;1.83;;;1.73;;
21741;SDS011;11033;47.490;11.116;2024-03-02T12:08:07;2.67;;;1.75;;
21741;SDS011;11033;47.490;11.116;2024-03-02T12:10:33;2.05;;;1.60;;
21741;SDS011;11033;47.490;11.116;2024-03-02T12:13:00;1.70;;;1.50;;
21741;SDS011;11033;47.490;11.116;2024-03-02T12:15:27;1.90;;;1.80;;
21741;SDS011;11033;47.490;11.116;2024-03-02T12:17:58;1.70;;;1.60;;
21741;SDS011;11033;47.490;11.116;2024-03-02T12:20:25;1.70;;;1.60;;
21741;SDS011;11033;47.490;11.116;2024-03-02T12:22:52;1.70;;;1.60;;
21741;SDS011;11033;47.490;11.116;2024-03-02T12:25:19;2.15;;;1.90;;
21741;SDS011;11033;47.490;11.116;2024-03-02T12:27:45;2.35;;;2.15;;
21741;SDS011;11033;47.490;11.116;2024-03-02T12:30:12;4.78;;;4.47;;
21741;SDS011;11033;47.490;11.116;2024-03-02T12:32:39;16.73;;;15.93;;
21741;SDS011;11033;47.490;11.116;2024-03-02T12:35:05;25.88;;;24.65;;
21741;SDS011;11033;47.490;11.116;2024-03-02T12:37:31;17.25;;;16.33;;
21741;SDS011;11033;47.490;11.116;2024-03-02T12:39:56;11.32;;;10.82;;
21741;SDS011;11033;47.490;11.116;2024-03-02T12:42:21;14.93;;;13.90;;
21741;SDS011;11033;47.490;11.116;2024-03-02T12:44:51;94.13;;;88.35;;
21741;SDS011;11033;47.490;11.116;2024-03-02T12:47:19;28.10;;;26.70;;
21741;SDS011;11033;47.490;11.116;2024-03-02T12:49:44;32.70;;;31.10;;
21741;SDS011;11033;47.490;11.116;2024-03-02T12:52:11;31.90;;;30.27;;
21741;SDS011;11033;47.490;11.116;2024-03-02T12:54:38;32.72;;;31.08;;
21741;SDS011;11033;47.490;11.116;2024-03-02T12:57:03;1999.90;;;999.90;;
21741;SDS011;11033;47.490;11.116;2024-03-02T12:59:29;1999.90;;;999.90;;
21741;SDS011;11033;47.490;11.116;2024-03-02T13:01:54;1999.90;;;999.90;;
21741;SDS011;11033;47.490;11.116;2024-03-02T13:04:24;1999.90;;;999.90;;
21741;SDS011;11033;47.490;11.116;2024-03-02T13:06:56;1999.90;;;999.90;;
21741;SDS011;11033;47.490;11.116;2024-03-02T13:09:25;1999.90;;;999.90;;
21741;SDS011;11033;47.490;11.116;2024-03-02T13:11:51;1999.90;;;999.90;;
21741;SDS011;11033;47.490;11.116;2024-03-02T13:14:16;1999.90;;;999.90;;
21741;SDS011;11033;47.490;11.116;2024-03-02T13:16:42;1999.90;;;999.90;;
21741;SDS011;11033;47.490;11.116;2024-03-02T13:19:08;1.45;;;1.10;;
21741;SDS011;11033;47.490;11.116;2024-03-02T13:21:36;1.90;;;1.20;;
21741;SDS011;11033;47.490;11.116;2024-03-02T13:24:02;1.13;;;1.10;;
21741;SDS011;11033;47.490;11.116;2024-03-02T13:26:28;1.63;;;1.52;;
21741;SDS011;11033;47.490;11.116;2024-03-02T13:28:53;4.28;;;1.27;;
21741;SDS011;11033;47.490;11.116;2024-03-02T13:31:19;3.17;;;2.00;;
21741;SDS011;11033;47.490;11.116;2024-03-02T13:33:44;2.10;;;1.70;;
21741;SDS011;11033;47.490;11.116;2024-03-02T13:36:09;1.85;;;1.17;;
21741;SDS011;11033;47.490;11.116;2024-03-02T13:38:35;1.30;;;1.20;;
21741;SDS011;11033;47.490;11.116;2024-03-02T13:41:01;2.03;;;1.20;;
21741;SDS011;11033;47.490;11.116;2024-03-02T13:43:26;1.30;;;1.20;;
21741;SDS011;11033;47.490;11.116;2024-03-02T13:45:52;1.27;;;0.90;;
21741;SDS011;11033;47.490;11.116;2024-03-02T13:48:18;1.85;;;1.10;;
21741;SDS011;11033;47.490;11.116;2024-03-02T13:50:44;1.50;;;1.40;;
21741;SDS011;11033;47.490;11.116;2024-03-02T13:53:10;1.50;;;1.40;;
21741;SDS011;11033;47.490;11.116;2024-03-02T13:55:36;1.70;;;1.60;;
21741;SDS011;11033;47.490;11.116;2024-03-02T13:58:02;1.30;;;1.30;;
21741;SDS011;11033;47.490;11.116;2024-03-02T14:00:28;1.95;;;1.50;;
21741;SDS011;11033;47.490;11.116;2024-03-02T14:02:54;2.47;;;1.60;;
21741;SDS011;11033;47.490;11.116;2024-03-02T14:05:19;2.70;;;1.60;;
21741;SDS011;11033;47.490;11.116;2024-03-02T14:07:45;1.45;;;1.20;;
21741;SDS011;11033;47.490;11.116;2024-03-02T14:10:10;1.87;;;1.50;;
21741;SDS011;11033;47.490;11.116;2024-03-02T14:12:36;1.50;;;1.40;;
21741;SDS011;11033;47.490;11.116;2024-03-02T14:15:02;1.80;;;1.60;;
21741;SDS011;11033;47.490;11.116;2024-03-02T14:17:27;2.58;;;1.63;;
21741;SDS011;11033;47.490;11.116;2024-03-02T14:19:53;1.90;;;1.80;;
21741;SDS011;11033;47.490;11.116;2024-03-02T14:22:22;2.53;;;1.40;;
21741;SDS011;11033;47.490;11.116;2024-03-02T14:24:47;5.13;;;1.80;;